Forside
METAR-TAF:

METAR-TAF

Lufthavne :

Payam

Karaj, Iran

Breddekreds: 35-46-34N, længdekreds: 050-49-36E, højde: 1271 m

Aktuelle vejr

Denne rapport blev lavet for 5 timer og 55 minutter siden, kl. 18:00 UTC
Vind 18 kt fra vest
Temperatur 30°C
Fugtighed 19%
Tryk 1004 hPa
Sigt 10 km eller mere
ingen skyer under 1500m og ingen cumulonimbus

METAR: OIIP 161800Z 27018KT CAVOK 30/04 Q1004

Tid: 04:25 (23:55 UTC)


TAF: fraværende

Vejrobservationer og prognoser fra mere end 4000 lufthavne (METAR og TAF).

De gule og røde prikker repræsenterer de meteorologiske stationer.

Flyt musen over at se navnet på stationen.

Så klik over at se vejr observationer og prognoser.

At skifte det kort: Klik på de grønne knapper med et sort kors for at zoome ind; på den grønne knap med en bindestreg for at zoome ud; eller på de grønne pile for tilstødende kort.


METAR-TAF: